createdAt,value
2022-11-30T05:03:36.161Z,27.90
2022-11-30T05:07:40.534Z,26.60
2022-11-30T05:11:43.448Z,28.77
2022-11-30T05:15:46.670Z,30.37
2022-11-30T05:19:50.689Z,29.25
2022-11-30T05:23:53.343Z,27.55
2022-11-30T05:27:55.952Z,25.00
2022-11-30T05:31:58.553Z,29.90
2022-11-30T05:36:05.924Z,27.23
2022-11-30T05:40:13.853Z,28.55
2022-11-30T05:48:19.118Z,30.55
2022-11-30T05:52:23.158Z,27.70
2022-11-30T05:56:25.866Z,25.83
2022-11-30T06:00:28.510Z,24.53
2022-11-30T06:04:31.329Z,23.47
2022-11-30T06:08:35.305Z,24.15
2022-11-30T06:12:37.933Z,25.77
2022-11-30T06:16:40.970Z,30.87
2022-11-30T06:20:43.760Z,27.42
2022-11-30T06:24:47.785Z,25.40
2022-11-30T06:28:50.506Z,23.52
2022-11-30T06:32:53.549Z,26.67
2022-11-30T06:36:58.388Z,25.05
2022-11-30T06:41:06.685Z,25.73
2022-11-30T06:45:10.623Z,25.00
2022-11-30T06:49:13.251Z,26.58
2022-11-30T06:53:15.825Z,23.80
2022-11-30T06:57:19.840Z,25.40
2022-11-30T07:01:22.672Z,24.77
2022-11-30T07:05:25.328Z,23.10
2022-11-30T07:09:28.127Z,21.30
2022-11-30T07:13:32.143Z,21.80
2022-11-30T07:17:34.784Z,20.50
2022-11-30T07:21:37.421Z,24.00
2022-11-30T07:25:57.492Z,24.80
2022-11-30T07:30:01.536Z,21.88
2022-11-30T07:34:06.737Z,20.70
2022-11-30T07:38:10.041Z,22.70
2022-11-30T07:42:12.708Z,22.15
2022-11-30T07:46:17.671Z,22.50
2022-11-30T07:50:20.305Z,21.63
2022-11-30T07:54:22.963Z,19.50
2022-11-30T07:58:25.573Z,18.20
2022-11-30T08:02:29.645Z,19.20
2022-11-30T08:06:32.761Z,19.73
2022-11-30T08:10:35.549Z,17.33
2022-11-30T08:15:11.103Z,19.13
2022-11-30T08:19:02.117Z,19.48
2022-11-30T08:23:04.800Z,19.52
2022-11-30T08:27:07.440Z,17.30
2022-11-30T08:31:13.113Z,16.47
2022-11-30T08:35:17.281Z,16.13
2022-11-30T08:39:19.957Z,17.73
2022-11-30T08:43:22.546Z,19.33
2022-11-30T08:47:25.281Z,20.43
2022-11-30T08:51:42.170Z,23.40
2022-11-30T08:55:58.664Z,23.25
2022-11-30T09:00:01.275Z,28.63
2022-11-30T09:04:03.943Z,21.77
2022-11-30T09:08:08.011Z,22.47
2022-11-30T09:12:10.703Z,21.55
2022-11-30T09:16:15.133Z,21.07
2022-11-30T09:20:18.040Z,20.52
2022-11-30T09:24:22.007Z,19.45
2022-11-30T09:28:24.979Z,20.42
2022-11-30T09:32:28.527Z,24.00
2022-11-30T09:36:32.914Z,23.05
2022-11-30T09:40:39.333Z,22.63
2022-11-30T09:44:53.277Z,21.35
2022-11-30T09:49:03.498Z,21.55
2022-11-30T09:53:12.604Z,20.23
2022-11-30T09:57:26.444Z,18.83
2022-11-30T10:01:32.725Z,17.85
2022-11-30T10:05:46.512Z,18.45
2022-11-30T10:10:23.886Z,18.33
2022-11-30T10:14:45.817Z,14.88
2022-11-30T10:18:56.057Z,15.15
2022-11-30T10:23:13.208Z,18.15
2022-11-30T10:27:18.894Z,21.23
2022-11-30T10:31:36.109Z,21.27
2022-11-30T10:35:42.317Z,17.65
2022-11-30T10:39:53.950Z,16.50
2022-11-30T10:44:03.911Z,13.57
2022-11-30T10:48:16.073Z,16.65
2022-11-30T10:52:23.234Z,16.05
2022-11-30T10:56:26.641Z,17.52
2022-11-30T11:00:29.262Z,16.40
2022-11-30T11:04:33.265Z,14.67
2022-11-30T11:08:36.347Z,14.15
2022-11-30T11:12:39.084Z,18.98
2022-11-30T11:16:56.899Z,15.90
2022-11-30T11:21:07.354Z,15.05
2022-11-30T11:25:20.286Z,16.48
2022-11-30T11:29:32.166Z,16.37
2022-11-30T11:33:34.816Z,13.77
2022-11-30T11:37:41.543Z,16.27
2022-11-30T11:41:44.196Z,15.15
2022-11-30T11:45:52.948Z,17.80
2022-11-30T11:50:09.282Z,16.98
2022-11-30T11:54:23.429Z,17.40
2022-11-30T11:58:36.369Z,26.45
2022-11-30T12:02:50.662Z,20.20
2022-11-30T12:06:56.640Z,21.13
2022-11-30T12:11:05.803Z,20.45
2022-11-30T12:15:12.280Z,19.50
2022-11-30T12:19:21.591Z,19.38
2022-11-30T12:23:44.032Z,19.02
2022-11-30T12:27:57.060Z,18.17
2022-11-30T12:32:17.550Z,16.07
2022-11-30T12:36:30.443Z,19.10
2022-11-30T12:40:42.340Z,17.92
2022-11-30T12:44:57.634Z,18.20
2022-11-30T12:49:13.550Z,18.90
2022-11-30T12:53:23.647Z,19.58
2022-11-30T12:57:31.435Z,19.58
2022-11-30T13:01:49.495Z,20.60
2022-11-30T13:05:58.118Z,22.70
2022-11-30T13:10:07.950Z,22.35
2022-11-30T13:14:14.953Z,22.38
2022-11-30T13:18:21.025Z,22.75
2022-11-30T13:22:27.854Z,21.67
2022-11-30T13:26:35.274Z,20.25
2022-11-30T13:30:43.487Z,23.05
2022-11-30T13:34:47.710Z,20.60
2022-11-30T13:39:10.078Z,22.48
2022-11-30T13:43:19.174Z,21.17
2022-11-30T13:47:30.134Z,20.85
2022-11-30T13:51:39.773Z,23.98
2022-11-30T13:56:00.577Z,20.80
2022-11-30T14:00:25.111Z,20.95
2022-11-30T14:04:32.898Z,23.23
2022-11-30T14:08:39.060Z,25.38
2022-11-30T14:13:00.659Z,16.90
2022-11-30T14:17:03.557Z,17.55
2022-11-30T14:21:16.607Z,22.38
2022-11-30T14:25:22.046Z,17.10
2022-11-30T14:29:28.948Z,14.10
2022-11-30T14:33:42.499Z,18.05
2022-11-30T14:37:47.846Z,15.18
2022-11-30T14:41:51.996Z,14.98
2022-11-30T14:46:04.670Z,15.93
2022-11-30T14:50:23.610Z,15.80
2022-11-30T14:54:48.387Z,17.20
2022-11-30T14:58:58.894Z,19.05
2022-11-30T15:03:01.612Z,20.42
2022-11-30T15:07:04.455Z,17.50
2022-11-30T15:11:09.289Z,19.10
2022-11-30T15:15:18.914Z,18.52
2022-11-30T15:19:24.438Z,18.52
2022-11-30T15:23:27.694Z,18.95
2022-11-30T15:27:30.592Z,18.15
2022-11-30T15:31:38.310Z,18.38
2022-11-30T15:36:13.850Z,18.52
2022-11-30T15:40:11.550Z,18.95
2022-11-30T15:44:25.037Z,17.52
2022-11-30T15:48:31.848Z,18.33
2022-11-30T15:52:34.671Z,16.92
2022-11-30T15:56:37.896Z,18.45
2022-11-30T16:00:40.540Z,16.50
2022-11-30T16:05:13.792Z,15.70
2022-11-30T16:09:23.767Z,17.77
2022-11-30T16:13:31.200Z,17.67
2022-11-30T16:17:33.928Z,16.83
2022-11-30T16:21:38.014Z,18.00
2022-11-30T16:25:42.018Z,16.15
2022-11-30T16:29:49.111Z,20.98
2022-11-30T16:33:54.563Z,19.67
2022-11-30T16:37:58.519Z,21.63
2022-11-30T16:42:01.124Z,16.73
2022-11-30T16:46:03.813Z,19.67
2022-11-30T16:50:08.243Z,17.85
2022-11-30T16:54:14.147Z,21.23
2022-11-30T16:58:16.746Z,18.55
2022-11-30T17:02:24.573Z,19.30
2022-11-30T17:06:27.738Z,21.88
2022-11-30T17:10:31.795Z,21.90
2022-11-30T17:14:34.416Z,20.40
2022-11-30T17:18:37.114Z,21.23
2022-11-30T17:22:40.124Z,20.63
2022-11-30T17:26:44.116Z,24.08
2022-11-30T17:30:46.821Z,25.30
2022-11-30T17:34:49.829Z,24.40
2022-11-30T17:38:52.696Z,25.85
2022-11-30T17:42:56.657Z,26.80
2022-11-30T17:46:59.256Z,29.77
2022-11-30T17:51:02.349Z,25.07
2022-11-30T17:55:05.345Z,28.13
2022-11-30T17:59:09.663Z,27.33
2022-11-30T18:03:12.307Z,29.45
2022-11-30T18:07:14.999Z,30.03
2022-11-30T18:11:20.214Z,28.90
2022-11-30T18:15:24.188Z,29.30
2022-11-30T18:19:26.875Z,26.92
2022-11-30T18:23:29.501Z,31.70
2022-11-30T18:27:32.097Z,31.43
2022-11-30T18:31:37.228Z,29.93
2022-11-30T18:35:39.828Z,30.70
2022-11-30T18:39:42.584Z,31.17
2022-11-30T18:43:45.221Z,30.53
2022-11-30T18:48:22.556Z,28.77
2022-11-30T18:52:26.555Z,32.70
2022-11-30T18:56:30.332Z,29.88
2022-11-30T19:00:32.951Z,33.47
2022-11-30T19:04:35.538Z,40.33
2022-11-30T19:08:40.883Z,36.07
2022-11-30T19:12:44.605Z,40.22
2022-11-30T19:16:47.822Z,41.22
2022-11-30T19:20:50.850Z,41.28
2022-11-30T19:24:54.788Z,43.08
2022-11-30T19:28:58.471Z,38.58
2022-11-30T19:33:01.068Z,39.58
2022-11-30T19:37:03.674Z,43.50
2022-11-30T19:41:08.793Z,42.37
2022-11-30T19:45:11.969Z,42.58
2022-11-30T19:49:14.556Z,38.13
2022-11-30T19:53:17.150Z,42.38
2022-11-30T19:57:21.165Z,38.63
2022-11-30T20:01:25.462Z,37.40
2022-11-30T20:05:28.533Z,43.58
2022-11-30T20:09:31.115Z,46.50
2022-11-30T20:13:35.100Z,47.30
2022-11-30T20:17:37.740Z,49.60
2022-11-30T20:21:40.351Z,45.43
2022-11-30T20:25:42.963Z,43.93
2022-11-30T20:29:46.899Z,49.40
2022-11-30T20:33:50.220Z,51.92
2022-11-30T20:37:53.062Z,45.50
2022-11-30T20:41:55.701Z,45.85
2022-11-30T20:45:59.750Z,46.63
2022-11-30T20:50:02.418Z,45.47
2022-11-30T20:54:07.422Z,47.77
2022-11-30T20:58:10.009Z,48.60
2022-11-30T21:02:14.077Z,49.63
2022-11-30T21:06:17.644Z,45.63
2022-11-30T21:14:23.335Z,44.30
2022-11-30T21:18:27.327Z,49.17
2022-11-30T21:22:30.087Z,44.60
2022-11-30T21:26:34.421Z,50.07
2022-11-30T21:30:39.318Z,49.22
2022-11-30T21:34:43.330Z,42.50
2022-11-30T21:38:45.981Z,49.65
2022-11-30T21:42:48.635Z,46.40
2022-11-30T21:46:51.627Z,51.40
2022-11-30T21:51:00.474Z,54.10
2022-11-30T21:55:03.103Z,46.55
2022-11-30T21:59:07.282Z,48.80
